createdAt,value
2018-05-10T00:02:01.424Z,8.30
2018-05-10T00:04:30.631Z,8.03
2018-05-10T00:06:59.001Z,8.10
2018-05-10T00:09:27.580Z,8.50
2018-05-10T00:11:56.379Z,8.70
2018-05-10T00:14:24.795Z,8.38
2018-05-10T00:16:54.659Z,8.40
2018-05-10T00:19:23.809Z,8.13
2018-05-10T00:21:52.140Z,8.68
2018-05-10T00:24:20.620Z,8.63
2018-05-10T00:26:49.783Z,8.37
2018-05-10T00:29:20.060Z,8.37
2018-05-10T00:31:48.401Z,8.50
2018-05-10T00:34:18.207Z,8.53
2018-05-10T00:36:47.471Z,8.20
2018-05-10T00:39:15.899Z,8.70
2018-05-10T00:41:45.238Z,8.80
2018-05-10T00:44:13.567Z,8.40
2018-05-10T00:46:42.008Z,8.33
2018-05-10T00:49:11.174Z,8.00
2018-05-10T00:51:39.784Z,8.83
2018-05-10T00:54:08.203Z,8.47
2018-05-10T00:56:36.989Z,8.40
2018-05-10T00:59:06.210Z,8.33
2018-05-10T01:01:34.709Z,8.63
2018-05-10T01:04:03.112Z,8.77
2018-05-10T01:06:31.696Z,8.67
2018-05-10T01:09:00.465Z,8.60
2018-05-10T01:11:28.998Z,8.70
2018-05-10T01:13:57.563Z,9.20
2018-05-10T01:16:27.214Z,8.80
2018-05-10T01:18:55.926Z,9.43
2018-05-10T01:21:24.268Z,9.27
2018-05-10T01:23:56.661Z,9.07
2018-05-10T01:26:27.862Z,9.23
2018-05-10T01:28:56.274Z,8.77
2018-05-10T01:31:24.727Z,8.87
2018-05-10T01:33:53.189Z,9.43
2018-05-10T01:36:22.551Z,9.87
2018-05-10T01:38:51.620Z,9.33
2018-05-10T01:41:24.249Z,9.43
2018-05-10T01:43:53.523Z,10.30
2018-05-10T01:46:22.004Z,9.57
2018-05-10T01:48:50.429Z,10.10
2018-05-10T01:51:18.995Z,9.67
2018-05-10T01:53:47.956Z,9.97
2018-05-10T01:56:16.415Z,9.73
2018-05-10T01:58:45.501Z,10.37
2018-05-10T02:01:14.149Z,10.10
2018-05-10T02:03:44.015Z,10.17
2018-05-10T02:06:13.116Z,10.10
2018-05-10T02:08:42.279Z,10.70
2018-05-10T02:11:10.720Z,9.90
2018-05-10T02:13:39.108Z,10.10
2018-05-10T02:16:07.479Z,10.70
2018-05-10T02:18:35.803Z,9.63
2018-05-10T02:21:04.663Z,10.27
2018-05-10T02:23:33.024Z,10.50
2018-05-10T02:26:01.351Z,9.80
2018-05-10T02:28:30.485Z,10.17
2018-05-10T02:30:58.826Z,10.47
2018-05-10T02:33:27.249Z,9.67
2018-05-10T02:35:55.641Z,9.70
2018-05-10T02:38:23.993Z,10.03
2018-05-10T02:40:52.508Z,9.93
2018-05-10T02:43:20.887Z,10.17
2018-05-10T02:45:49.233Z,10.33
2018-05-10T02:48:17.576Z,11.13
2018-05-10T02:50:46.071Z,10.40
2018-05-10T02:53:15.840Z,38.67
2018-05-10T02:55:44.192Z,11.43
2018-05-10T02:58:12.586Z,10.50
2018-05-10T03:00:40.966Z,11.03
2018-05-10T03:03:09.370Z,11.43
2018-05-10T03:05:37.724Z,11.48
2018-05-10T03:08:06.093Z,11.70
2018-05-10T03:10:34.519Z,12.10
2018-05-10T03:13:02.954Z,10.83
2018-05-10T03:15:31.334Z,12.13
2018-05-10T03:18:01.312Z,11.50
2018-05-10T03:20:30.462Z,11.60
2018-05-10T03:22:58.828Z,10.63
2018-05-10T03:25:27.188Z,10.70
2018-05-10T03:27:55.556Z,10.87
2018-05-10T03:30:23.893Z,10.17
2018-05-10T03:32:52.248Z,10.90
2018-05-10T03:35:20.562Z,10.77
2018-05-10T03:37:49.746Z,11.60
2018-05-10T03:40:18.898Z,11.43
2018-05-10T03:42:47.259Z,11.37
2018-05-10T03:45:16.356Z,11.00
2018-05-10T03:47:45.485Z,10.80
2018-05-10T03:50:13.815Z,11.27
2018-05-10T03:52:43.063Z,11.27
2018-05-10T03:55:11.382Z,10.37
2018-05-10T03:57:39.723Z,11.27
2018-05-10T04:00:08.945Z,11.07
2018-05-10T04:06:18.423Z,10.87
2018-05-10T04:09:04.469Z,11.30
2018-05-10T04:11:32.902Z,11.40
2018-05-10T04:14:02.144Z,12.50
2018-05-10T04:16:30.525Z,11.43
2018-05-10T04:18:58.915Z,10.77
2018-05-10T04:21:27.256Z,12.10
2018-05-10T04:23:56.416Z,11.73
2018-05-10T04:26:24.820Z,11.50
2018-05-10T04:28:53.967Z,11.47
2018-05-10T04:31:22.351Z,12.10
2018-05-10T04:33:50.699Z,11.87
2018-05-10T04:36:19.041Z,11.83
2018-05-10T04:38:48.165Z,12.23
2018-05-10T04:41:16.512Z,12.30
2018-05-10T04:43:44.870Z,12.07
2018-05-10T04:46:13.306Z,11.27
2018-05-10T04:48:41.662Z,12.70
2018-05-10T04:51:10.760Z,12.03
2018-05-10T04:53:40.849Z,11.27
2018-05-10T04:56:09.192Z,12.10
2018-05-10T04:58:38.359Z,12.10
2018-05-10T05:01:07.455Z,11.70
2018-05-10T05:03:37.876Z,10.57
2018-05-10T05:06:06.979Z,11.97
2018-05-10T05:08:36.131Z,11.33
2018-05-10T05:11:04.586Z,11.70
2018-05-10T05:13:32.945Z,11.20
2018-05-10T05:16:01.288Z,11.63
2018-05-10T05:18:29.662Z,11.27
2018-05-10T05:20:58.004Z,10.83
2018-05-10T05:23:27.036Z,10.93
2018-05-10T05:25:55.409Z,10.37
2018-05-10T05:28:23.773Z,10.50
2018-05-10T05:30:53.068Z,10.30
2018-05-10T05:33:21.411Z,10.20
2018-05-10T05:35:49.764Z,9.77
2018-05-10T05:38:18.871Z,10.00
2018-05-10T05:40:48.033Z,9.60
2018-05-10T05:43:16.448Z,9.50
2018-05-10T05:45:44.768Z,9.97
2018-05-10T05:48:13.114Z,9.43
2018-05-10T05:50:42.107Z,9.50
2018-05-10T05:53:10.462Z,9.27
2018-05-10T05:55:38.786Z,9.30
2018-05-10T05:58:07.226Z,9.27
2018-05-10T06:00:36.336Z,8.83
2018-05-10T06:03:05.396Z,9.20
2018-05-10T06:05:33.735Z,9.30
2018-05-10T06:08:02.110Z,8.73
2018-05-10T06:10:30.598Z,8.30
2018-05-10T06:12:58.913Z,8.07
2018-05-10T06:15:27.224Z,8.27
2018-05-10T06:17:55.601Z,8.17
2018-05-10T06:20:23.938Z,7.80
2018-05-10T06:22:52.697Z,8.13
2018-05-10T06:25:21.043Z,7.27
2018-05-10T06:27:49.395Z,7.73
2018-05-10T06:30:17.743Z,7.23
2018-05-10T06:32:46.825Z,8.07
2018-05-10T06:35:15.163Z,7.40
2018-05-10T06:37:44.253Z,8.00
2018-05-10T06:40:13.420Z,7.70
2018-05-10T06:42:41.781Z,7.80
2018-05-10T06:45:10.151Z,7.35
2018-05-10T06:47:38.477Z,7.33
2018-05-10T06:50:07.595Z,7.45
2018-05-10T06:52:35.926Z,7.78
2018-05-10T06:55:05.235Z,7.67
2018-05-10T06:57:33.573Z,7.53
2018-05-10T07:00:02.001Z,7.37
2018-05-10T07:02:30.413Z,7.03
2018-05-10T07:04:59.566Z,6.80
2018-05-10T07:07:28.743Z,7.22
2018-05-10T07:09:57.149Z,6.57
2018-05-10T07:12:26.111Z,7.22
2018-05-10T07:14:54.467Z,7.20
2018-05-10T07:17:22.835Z,7.62
2018-05-10T07:19:52.134Z,7.62
2018-05-10T07:22:20.508Z,7.95
2018-05-10T07:24:49.198Z,6.78
2018-05-10T07:27:17.617Z,7.20
2018-05-10T07:29:45.945Z,7.07
2018-05-10T07:32:15.051Z,7.10
2018-05-10T07:34:43.634Z,6.65
2018-05-10T07:37:11.971Z,7.20
2018-05-10T07:39:40.347Z,6.80
2018-05-10T07:42:08.720Z,7.57
2018-05-10T07:44:37.069Z,6.80
2018-05-10T07:47:05.516Z,7.50
2018-05-10T07:49:33.861Z,7.30
2018-05-10T07:52:02.225Z,6.80
2018-05-10T07:54:30.574Z,7.55
2018-05-10T07:56:58.934Z,7.20
2018-05-10T07:59:27.293Z,7.80
2018-05-10T08:01:56.041Z,7.37
2018-05-10T08:04:24.407Z,7.10
2018-05-10T08:06:52.758Z,6.75
2018-05-10T08:09:21.890Z,7.05
2018-05-10T08:11:50.442Z,7.00
2018-05-10T08:14:18.790Z,7.15
2018-05-10T08:16:48.867Z,6.75
2018-05-10T08:19:17.522Z,6.22
2018-05-10T08:21:46.643Z,6.43
2018-05-10T08:24:16.128Z,6.45
2018-05-10T08:26:44.513Z,6.47
2018-05-10T08:29:12.947Z,6.82
2018-05-10T08:31:41.284Z,6.37
2018-05-10T08:34:10.380Z,7.10
2018-05-10T08:36:38.753Z,6.45
2018-05-10T08:39:07.843Z,6.80
2018-05-10T08:41:36.249Z,6.86
2018-05-10T08:44:05.093Z,6.57
2018-05-10T08:46:33.468Z,6.53
2018-05-10T08:49:02.703Z,6.65
2018-05-10T08:51:31.134Z,6.30
2018-05-10T08:54:00.232Z,6.70
2018-05-10T08:56:29.337Z,6.60
2018-05-10T08:58:58.450Z,8.15
2018-05-10T09:01:26.819Z,9.65
2018-05-10T09:03:55.963Z,9.02
2018-05-10T09:06:24.351Z,8.52
2018-05-10T09:08:52.785Z,9.38
2018-05-10T09:11:21.192Z,9.70
2018-05-10T09:13:49.953Z,11.02
2018-05-10T09:16:18.352Z,11.40
2018-05-10T09:18:46.913Z,17.58
2018-05-10T09:21:15.333Z,18.20
2018-05-10T09:23:43.837Z,23.97
2018-05-10T09:26:14.505Z,25.60
2018-05-10T09:28:43.220Z,26.45
2018-05-10T09:31:11.617Z,24.95
2018-05-10T09:33:40.015Z,26.52
2018-05-10T09:36:09.265Z,26.23
2018-05-10T09:38:37.648Z,28.43
2018-05-10T09:41:06.815Z,27.70
2018-05-10T09:43:35.933Z,35.40
2018-05-10T09:46:04.326Z,38.72
2018-05-10T09:48:32.693Z,39.97
2018-05-10T09:51:03.602Z,36.05
2018-05-10T09:53:33.652Z,42.98
2018-05-10T09:56:02.065Z,39.40
2018-05-10T09:58:30.413Z,44.35
2018-05-10T10:00:58.821Z,45.03
2018-05-10T10:03:27.456Z,45.42
2018-05-10T10:05:55.867Z,47.92
2018-05-10T10:08:24.381Z,48.65
2018-05-10T10:10:52.951Z,51.58
2018-05-10T10:13:21.384Z,49.17
2018-05-10T10:15:50.943Z,48.95
2018-05-10T10:18:19.333Z,50.17
2018-05-10T10:20:47.754Z,51.27
2018-05-10T10:23:18.856Z,50.75
2018-05-10T10:25:47.958Z,50.28
2018-05-10T10:28:17.090Z,49.33
2018-05-10T10:30:45.435Z,43.40
2018-05-10T10:33:15.211Z,49.50
2018-05-10T10:35:43.622Z,51.83
2018-05-10T10:38:12.890Z,49.33
2018-05-10T10:40:41.256Z,57.65
2018-05-10T10:43:11.247Z,54.80
2018-05-10T10:45:40.820Z,56.13
2018-05-10T10:48:10.077Z,52.70
2018-05-10T10:50:38.639Z,54.22
2018-05-10T10:53:07.036Z,56.58
2018-05-10T10:55:35.445Z,56.22
2018-05-10T10:58:03.781Z,56.00
2018-05-10T11:00:32.256Z,48.67
2018-05-10T11:03:01.283Z,53.60
2018-05-10T11:05:30.309Z,52.13
2018-05-10T11:07:59.503Z,49.20
2018-05-10T11:10:27.952Z,52.33
2018-05-10T11:12:59.064Z,53.75
2018-05-10T11:15:27.516Z,50.40
2018-05-10T11:17:56.955Z,52.47
2018-05-10T11:20:25.370Z,49.50
2018-05-10T11:22:54.166Z,50.58
2018-05-10T11:25:23.048Z,50.20
2018-05-10T11:27:51.470Z,51.85
2018-05-10T11:30:20.710Z,53.53
2018-05-10T11:32:49.184Z,50.33
2018-05-10T11:35:18.360Z,53.15
2018-05-10T11:37:47.570Z,49.97
2018-05-10T11:40:16.792Z,48.50
2018-05-10T11:42:45.267Z,47.25
2018-05-10T11:45:13.735Z,47.17
2018-05-10T11:47:42.077Z,42.73
2018-05-10T11:50:12.032Z,45.22
2018-05-10T11:52:40.435Z,49.92
2018-05-10T11:55:08.798Z,44.80
2018-05-10T11:57:37.934Z,43.08
2018-05-10T12:00:07.882Z,38.95
2018-05-10T12:02:36.379Z,34.13
2018-05-10T12:05:05.580Z,30.73
2018-05-10T12:07:34.013Z,33.40
2018-05-10T12:10:02.496Z,32.92
2018-05-10T12:12:31.671Z,32.17
2018-05-10T12:15:00.899Z,30.42
2018-05-10T12:17:30.075Z,27.83
2018-05-10T12:19:58.427Z,27.25
2018-05-10T12:22:27.612Z,26.15
2018-05-10T12:24:56.017Z,26.15
2018-05-10T12:27:24.604Z,26.42
2018-05-10T12:29:52.964Z,25.53
2018-05-10T12:32:21.391Z,27.23
2018-05-10T12:34:49.743Z,22.87
2018-05-10T12:37:18.241Z,27.33
2018-05-10T12:39:46.588Z,27.70
2018-05-10T12:42:15.868Z,25.80
2018-05-10T12:44:45.012Z,22.97
2018-05-10T12:47:13.446Z,19.80
2018-05-10T12:49:41.777Z,20.12
2018-05-10T12:52:11.777Z,19.05
2018-05-10T12:54:40.153Z,19.25
2018-05-10T12:57:09.456Z,18.57
2018-05-10T12:59:37.829Z,18.00
2018-05-10T13:02:06.374Z,17.23
2018-05-10T13:04:36.297Z,16.70
2018-05-10T13:07:04.629Z,16.67
2018-05-10T13:09:35.168Z,16.20
2018-05-10T13:12:04.313Z,15.75
2018-05-10T13:14:33.502Z,14.80
2018-05-10T13:17:02.205Z,16.50
2018-05-10T13:19:31.051Z,16.92
2018-05-10T13:21:59.453Z,16.10
2018-05-10T13:24:28.167Z,15.90
2018-05-10T13:26:56.549Z,15.35
2018-05-10T13:29:24.901Z,14.77
2018-05-10T13:31:53.310Z,15.30
2018-05-10T13:34:21.669Z,15.40
2018-05-10T13:36:50.680Z,16.48
2018-05-10T13:39:19.997Z,15.97
2018-05-10T13:41:49.126Z,15.63
2018-05-10T13:44:18.040Z,15.33
2018-05-10T13:46:46.380Z,16.00
2018-05-10T13:49:15.540Z,15.33
2018-05-10T13:51:44.818Z,13.80
2018-05-10T13:54:13.213Z,15.07
2018-05-10T13:56:43.255Z,15.93
2018-05-10T13:59:11.870Z,14.17
2018-05-10T14:01:41.195Z,13.80
2018-05-10T14:04:09.577Z,12.63
2018-05-10T14:06:38.048Z,11.37
2018-05-10T14:09:06.512Z,11.02
2018-05-10T14:11:35.745Z,11.05
2018-05-10T14:14:04.131Z,11.50
2018-05-10T14:16:32.538Z,11.07
2018-05-10T14:19:01.659Z,10.07
2018-05-10T14:21:30.937Z,9.00
2018-05-10T14:24:00.834Z,8.60
2018-05-10T14:26:29.181Z,8.00
2018-05-10T14:28:57.641Z,7.70
2018-05-10T14:31:26.092Z,7.50
2018-05-10T14:33:55.246Z,7.10
2018-05-10T14:36:23.581Z,7.87
2018-05-10T14:38:52.669Z,6.90
2018-05-10T14:41:21.825Z,7.00
2018-05-10T14:43:50.319Z,6.60
2018-05-10T14:46:18.732Z,5.97
2018-05-10T14:48:47.836Z,6.60
2018-05-10T14:51:16.240Z,6.80
2018-05-10T14:53:44.648Z,6.90
2018-05-10T14:56:12.995Z,7.43
2018-05-10T14:58:42.056Z,6.00
2018-05-10T15:01:11.352Z,5.63
2018-05-10T15:03:40.718Z,6.83
2018-05-10T15:06:09.084Z,7.33
2018-05-10T15:08:38.772Z,7.40
2018-05-10T15:11:07.973Z,7.07
2018-05-10T15:13:36.413Z,6.43
2018-05-10T15:16:04.758Z,7.27
2018-05-10T15:18:34.070Z,6.03
2018-05-10T15:21:03.182Z,5.50
2018-05-10T15:23:32.299Z,5.40
2018-05-10T15:26:01.376Z,5.50
2018-05-10T15:28:30.531Z,4.80
2018-05-10T15:30:59.748Z,4.90
2018-05-10T15:33:28.122Z,5.17
2018-05-10T15:35:56.747Z,4.93
2018-05-10T15:38:25.858Z,4.80
2018-05-10T15:40:54.251Z,5.10
2018-05-10T15:43:22.614Z,4.93
2018-05-10T15:45:51.050Z,4.43
2018-05-10T15:48:19.371Z,4.97
2018-05-10T15:50:47.763Z,4.83
2018-05-10T15:53:16.138Z,4.53
2018-05-10T15:55:44.499Z,4.40
2018-05-10T15:58:14.038Z,4.60
2018-05-10T16:00:43.759Z,4.40
2018-05-10T16:03:12.128Z,4.23
2018-05-10T16:05:41.351Z,4.70
2018-05-10T16:08:09.800Z,4.00
2018-05-10T16:10:39.135Z,5.50
2018-05-10T16:13:07.484Z,5.53
2018-05-10T16:15:36.896Z,3.93
2018-05-10T16:18:05.282Z,4.43
2018-05-10T16:20:33.690Z,3.90
2018-05-10T16:23:02.041Z,3.60
2018-05-10T16:25:30.372Z,3.60
2018-05-10T16:27:59.582Z,3.43
2018-05-10T16:30:28.457Z,3.77
2018-05-10T16:32:56.788Z,3.80
2018-05-10T16:35:25.144Z,3.70
2018-05-10T16:37:53.520Z,3.67
2018-05-10T16:40:22.283Z,3.87
2018-05-10T16:42:50.668Z,3.87
2018-05-10T16:45:19.741Z,3.60
2018-05-10T16:47:48.304Z,3.43
2018-05-10T16:50:16.745Z,3.43
2018-05-10T16:52:45.091Z,3.40
2018-05-10T16:55:14.213Z,3.40
2018-05-10T16:57:42.928Z,3.70
2018-05-10T17:00:11.383Z,3.50
2018-05-10T17:02:40.602Z,3.43
2018-05-10T17:05:09.543Z,3.93
2018-05-10T17:07:39.532Z,3.83
2018-05-10T17:10:08.697Z,3.40
2018-05-10T17:12:37.890Z,3.73
2018-05-10T17:15:06.289Z,4.07
2018-05-10T17:17:34.626Z,4.40
2018-05-10T17:20:03.071Z,4.10
2018-05-10T17:22:31.477Z,3.30
2018-05-10T17:25:00.994Z,3.60
2018-05-10T17:27:29.389Z,3.27
2018-05-10T17:29:57.784Z,3.27
2018-05-10T17:32:26.196Z,3.63
2018-05-10T17:34:54.657Z,3.40
2018-05-10T17:37:24.896Z,3.27
2018-05-10T17:39:54.091Z,3.70
2018-05-10T17:42:22.440Z,3.47
2018-05-10T17:44:50.789Z,3.40
2018-05-10T17:47:20.033Z,3.67
2018-05-10T17:49:48.448Z,3.70
2018-05-10T17:52:17.571Z,3.60
2018-05-10T17:54:46.510Z,3.60
2018-05-10T17:57:14.837Z,3.20
2018-05-10T17:59:45.512Z,3.83
2018-05-10T18:02:14.701Z,3.40
2018-05-10T18:04:43.371Z,3.97
2018-05-10T18:07:11.824Z,3.80
2018-05-10T18:09:40.132Z,4.00
2018-05-10T18:12:09.330Z,5.07
2018-05-10T18:14:38.471Z,3.97
2018-05-10T18:17:07.918Z,4.30
2018-05-10T18:19:36.266Z,4.00
2018-05-10T18:22:05.384Z,4.37
2018-05-10T18:24:34.523Z,5.17
2018-05-10T18:27:02.936Z,4.77
2018-05-10T18:29:32.132Z,4.20
2018-05-10T18:32:01.280Z,4.30
2018-05-10T18:34:29.612Z,4.40
2018-05-10T18:36:58.729Z,4.40
2018-05-10T18:39:27.178Z,4.40
2018-05-10T18:41:56.374Z,4.10
2018-05-10T18:44:25.528Z,4.23
2018-05-10T18:46:53.921Z,4.40
2018-05-10T18:49:23.293Z,3.70
2018-05-10T18:51:53.188Z,4.00
2018-05-10T18:54:21.621Z,3.40
2018-05-10T18:56:50.830Z,3.42
2018-05-10T18:59:19.282Z,2.97
2018-05-10T19:01:47.676Z,3.20
2018-05-10T19:04:16.020Z,3.23
2018-05-10T19:06:44.360Z,3.27
2018-05-10T19:09:13.534Z,3.40
2018-05-10T19:11:43.690Z,3.17
2018-05-10T19:14:12.856Z,3.20
2018-05-10T19:16:41.249Z,3.20
2018-05-10T19:19:10.539Z,3.17
2018-05-10T19:21:40.549Z,3.20
2018-05-10T19:24:08.911Z,3.60
2018-05-10T19:26:37.324Z,3.23
2018-05-10T19:29:05.660Z,3.00
2018-05-10T19:31:34.125Z,3.17
2018-05-10T19:34:02.788Z,3.20
2018-05-10T19:36:31.758Z,3.33
2018-05-10T19:39:00.966Z,3.58
2018-05-10T19:41:30.565Z,3.13
2018-05-10T19:43:59.681Z,3.30
2018-05-10T19:46:30.676Z,3.20
2018-05-10T19:48:59.029Z,3.20
2018-05-10T19:51:27.409Z,3.37
2018-05-10T19:53:56.496Z,3.60
2018-05-10T19:56:24.883Z,3.50
2018-05-10T19:58:53.233Z,3.50
2018-05-10T20:01:21.707Z,3.57
2018-05-10T20:03:50.072Z,3.87
2018-05-10T20:06:20.033Z,3.87
2018-05-10T20:08:48.423Z,3.67
2018-05-10T20:11:16.764Z,4.40
2018-05-10T20:13:45.993Z,4.20
2018-05-10T20:16:14.575Z,3.90
2018-05-10T20:18:43.070Z,3.60
2018-05-10T20:21:12.986Z,3.73
2018-05-10T20:23:41.355Z,4.20
2018-05-10T20:26:09.681Z,4.30
2018-05-10T20:28:38.849Z,4.00
2018-05-10T20:31:07.269Z,3.40
2018-05-10T20:33:36.390Z,3.60
2018-05-10T20:36:04.742Z,4.00
2018-05-10T20:38:33.883Z,4.30
2018-05-10T20:41:02.219Z,4.30
2018-05-10T20:43:31.462Z,4.03
2018-05-10T20:46:00.609Z,4.37
2018-05-10T20:48:29.751Z,4.27
2018-05-10T20:50:58.485Z,4.60
2018-05-10T20:53:27.626Z,4.57
2018-05-10T20:55:56.808Z,4.30
2018-05-10T20:58:25.127Z,4.87
2018-05-10T21:00:53.892Z,4.60
2018-05-10T21:03:23.140Z,4.73
2018-05-10T21:05:52.364Z,4.60
2018-05-10T21:08:21.492Z,4.50
2018-05-10T21:10:49.959Z,4.97
2018-05-10T21:13:18.351Z,4.37
2018-05-10T21:15:46.969Z,4.67
2018-05-10T21:18:15.758Z,4.50
2018-05-10T21:20:44.136Z,4.47
2018-05-10T21:23:14.995Z,4.40
2018-05-10T21:25:44.763Z,4.47
2018-05-10T21:28:13.953Z,4.90
2018-05-10T21:30:42.303Z,4.40
2018-05-10T21:33:11.624Z,4.53
2018-05-10T21:35:41.236Z,5.30
2018-05-10T21:38:10.412Z,4.93
2018-05-10T21:40:39.121Z,4.77
2018-05-10T21:43:07.490Z,5.70
2018-05-10T21:45:36.904Z,5.40
2018-05-10T21:48:05.638Z,5.75
2018-05-10T21:50:34.812Z,5.90
2018-05-10T21:53:03.153Z,5.23
2018-05-10T21:55:31.540Z,5.43
2018-05-10T21:57:59.878Z,5.97
2018-05-10T22:00:28.992Z,5.60
2018-05-10T22:02:57.800Z,5.20
2018-05-10T22:05:26.701Z,5.43
2018-05-10T22:07:55.853Z,5.50
2018-05-10T22:10:24.966Z,6.00
2018-05-10T22:12:54.390Z,5.87
2018-05-10T22:15:22.781Z,5.90
2018-05-10T22:17:51.977Z,5.97
2018-05-10T22:20:21.568Z,6.17
2018-05-10T22:22:50.788Z,6.60
2018-05-10T22:25:19.901Z,6.30
2018-05-10T22:27:48.398Z,6.23
2018-05-10T22:30:18.489Z,6.87
2018-05-10T22:32:47.772Z,5.90
2018-05-10T22:35:16.269Z,7.07
2018-05-10T22:37:44.640Z,6.83
2018-05-10T22:40:13.083Z,7.30
2018-05-10T22:42:42.507Z,7.50
2018-05-10T22:45:11.101Z,6.23
2018-05-10T22:47:40.264Z,6.40
2018-05-10T22:50:09.448Z,6.10
2018-05-10T22:52:37.888Z,7.37
2018-05-10T22:55:08.045Z,7.00
2018-05-10T22:57:38.107Z,6.57
2018-05-10T23:00:07.574Z,7.50
2018-05-10T23:02:36.813Z,7.90
2018-05-10T23:05:05.279Z,7.33
2018-05-10T23:07:33.771Z,6.37
2018-05-10T23:10:02.117Z,6.87
2018-05-10T23:12:32.028Z,7.03
2018-05-10T23:15:01.151Z,7.37
2018-05-10T23:17:30.420Z,7.30
2018-05-10T23:19:59.530Z,7.30
2018-05-10T23:22:28.668Z,8.10
2018-05-10T23:24:57.116Z,7.77
2018-05-10T23:27:25.584Z,7.77
2018-05-10T23:29:56.121Z,7.07
2018-05-10T23:32:25.668Z,7.30
2018-05-10T23:34:54.040Z,7.60
2018-05-10T23:37:22.702Z,7.43
2018-05-10T23:39:51.637Z,7.87
2018-05-10T23:42:20.008Z,7.03
2018-05-10T23:44:48.496Z,7.37
2018-05-10T23:47:16.867Z,7.53
2018-05-10T23:49:45.502Z,7.47
2018-05-10T23:52:13.848Z,7.23
2018-05-10T23:54:43.934Z,7.20
2018-05-10T23:57:12.621Z,7.67
2018-05-10T23:59:40.944Z,7.43
